Time;durP1;ratioP1;P1;durP2;ratioP2;P2;SDS_P1;SDS_P2;PMS_P1;PMS_P2;Temp;Humidity;BMP_temperature;BMP_pressure;BME280_temperature;BME280_humidity;BME280_pressure;Samples;Min_cycle;Max_cycle;Signal;HPM_P1;HPM_P2
2023/05/12 00:02:25;;;;;;;52.92;2.33;;;;;;;;;;4992592;28;20030;-75
2023/05/12 00:04:50;;;;;;;27.85;2.80;;;;;;;;;;4993695;28;20442;-76
2023/05/12 00:07:16;;;;;;;54.13;3.15;;;;;;;;;;4993857;28;20184;-76
2023/05/12 00:09:41;;;;;;;22.98;2.13;;;;;;;;;;4994100;28;20057;-76
2023/05/12 00:12:07;;;;;;;6.03;1.60;;;;;;;;;;4992129;28;20092;-75
2023/05/12 00:14:36;;;;;;;2.47;1.27;;;;;;;;;;4993785;28;20405;-76
2023/05/12 00:17:03;;;;;;;2.20;1.17;;;;;;;;;;4979875;28;20395;-76
2023/05/12 00:19:28;;;;;;;6.82;1.58;;;;;;;;;;4986540;28;20034;-76
2023/05/12 00:21:54;;;;;;;3.00;1.63;;;;;;;;;;4992447;28;20049;-76
2023/05/12 00:24:19;;;;;;;2.65;1.35;;;;;;;;;;4992968;28;20430;-76
2023/05/12 00:26:44;;;;;;;3.67;1.27;;;;;;;;;;4987921;28;20049;-75
2023/05/12 00:29:10;;;;;;;7.28;1.85;;;;;;;;;;4983621;28;20402;-75
2023/05/12 00:31:35;;;;;;;5.68;1.75;;;;;;;;;;4977632;28;20066;-75
2023/05/12 00:34:00;;;;;;;5.35;1.27;;;;;;;;;;4993551;28;20041;-75
2023/05/12 00:36:26;;;;;;;41.95;2.58;;;;;;;;;;4981300;28;20034;-75
2023/05/12 00:38:53;;;;;;;3.58;1.20;;;;;;;;;;4990658;28;20069;-76
2023/05/12 00:41:18;;;;;;;15.40;1.60;;;;;;;;;;4992413;28;20042;-75
2023/05/12 00:43:44;;;;;;;4.18;1.67;;;;;;;;;;4985402;28;20097;-75
2023/05/12 00:46:10;;;;;;;2.67;1.58;;;;;;;;;;4992799;28;20026;-75
2023/05/12 00:48:35;;;;;;;63.03;4.57;;;;;;;;;;4993489;28;20053;-76
2023/05/12 00:51:02;;;;;;;60.83;3.35;;;;;;;;;;4985447;28;20402;-75
2023/05/12 00:53:28;;;;;;;35.40;2.65;;;;;;;;;;4984651;28;20041;-76
2023/05/12 00:55:54;;;;;;;65.43;4.10;;;;;;;;;;4991660;28;20088;-76
2023/05/12 00:58:19;;;;;;;3.15;1.75;;;;;;;;;;4995852;28;20077;-75
2023/05/12 01:00:45;;;;;;;4.05;1.48;;;;;;;;;;4997146;28;20077;-75
2023/05/12 01:03:10;;;;;;;54.28;2.40;;;;;;;;;;4988484;28;20046;-75
2023/05/12 01:06:00;;;;;;;6.55;1.55;;;;;;;;;;4991530;28;20031;-76
2023/05/12 01:08:25;;;;;;;55.13;3.72;;;;;;;;;;4996396;28;20038;-76
2023/05/12 01:10:51;;;;;;;8.18;1.70;;;;;;;;;;4996736;28;20038;-75
2023/05/12 01:13:16;;;;;;;3.55;1.55;;;;;;;;;;4984844;28;20035;-76
2023/05/12 01:15:46;;;;;;;3.50;1.30;;;;;;;;;;4980342;28;20047;-76
2023/05/12 01:18:12;;;;;;;3.15;1.40;;;;;;;;;;4983408;28;20487;-76
2023/05/12 01:20:39;;;;;;;4.72;1.65;;;;;;;;;;4995113;28;20069;-76
2023/05/12 01:23:05;;;;;;;118.25;5.38;;;;;;;;;;4996160;28;20171;-75
2023/05/12 01:25:31;;;;;;;116.25;6.32;;;;;;;;;;4993646;28;20056;-75
2023/05/12 01:27:57;;;;;;;101.40;5.45;;;;;;;;;;4989364;28;20065;-76
2023/05/12 01:30:23;;;;;;;129.23;6.07;;;;;;;;;;4992886;28;20030;-76
2023/05/12 01:32:49;;;;;;;11.18;2.00;;;;;;;;;;4979138;28;20050;-75
2023/05/12 01:35:14;;;;;;;2.13;1.25;;;;;;;;;;5017216;28;20441;-76
2023/05/12 01:37:40;;;;;;;5.13;1.92;;;;;;;;;;4997009;28;20105;-76
2023/05/12 01:40:06;;;;;;;6.55;1.80;;;;;;;;;;4993485;28;20077;-75
2023/05/12 01:42:31;;;;;;;17.80;2.30;;;;;;;;;;4978121;28;20023;-75
2023/05/12 01:44:57;;;;;;;144.10;7.60;;;;;;;;;;4989151;28;20038;-75
2023/05/12 01:47:22;;;;;;;37.42;3.10;;;;;;;;;;4994209;28;20046;-75
2023/05/12 01:49:48;;;;;;;62.70;3.60;;;;;;;;;;4993049;28;20043;-75
2023/05/12 01:52:13;;;;;;;8.73;1.85;;;;;;;;;;4996944;28;20079;-75
2023/05/12 01:54:38;;;;;;;52.83;3.67;;;;;;;;;;4995846;28;20042;-76
2023/05/12 01:57:04;;;;;;;4.97;2.20;;;;;;;;;;4996730;28;20056;-76
2023/05/12 01:59:30;;;;;;;5.15;1.65;;;;;;;;;;4994828;28;20034;-75
2023/05/12 02:01:55;;;;;;;5.75;2.17;;;;;;;;;;4995851;28;20084;-75
2023/05/12 02:04:21;;;;;;;10.38;1.88;;;;;;;;;;4996035;28;20074;-76
2023/05/12 02:06:46;;;;;;;14.32;2.22;;;;;;;;;;4995313;28;20474;-76
2023/05/12 02:09:12;;;;;;;4.88;1.70;;;;;;;;;;4995952;28;20427;-75
2023/05/12 02:11:37;;;;;;;18.50;2.42;;;;;;;;;;4995136;28;20097;-75
2023/05/12 02:14:03;;;;;;;98.63;6.57;;;;;;;;;;4982980;28;20537;-75
2023/05/12 02:16:28;;;;;;;62.78;4.30;;;;;;;;;;4992508;28;20453;-75
2023/05/12 02:18:53;;;;;;;9.55;2.08;;;;;;;;;;4996184;28;20061;-76
2023/05/12 02:21:19;;;;;;;38.92;3.47;;;;;;;;;;4995968;28;20426;-76
2023/05/12 02:23:44;;;;;;;48.33;3.75;;;;;;;;;;4995686;28;20137;-75
2023/05/12 02:26:09;;;;;;;40.92;3.33;;;;;;;;;;4990728;28;20471;-75
2023/05/12 02:28:35;;;;;;;50.97;4.07;;;;;;;;;;4984352;28;20447;-75
2023/05/12 02:31:01;;;;;;;184.02;10.38;;;;;;;;;;4993823;28;20045;-75
2023/05/12 02:33:26;;;;;;;67.20;5.07;;;;;;;;;;4995876;28;20034;-75
2023/05/12 02:35:51;;;;;;;19.33;2.70;;;;;;;;;;4995773;28;20109;-75
2023/05/12 02:38:17;;;;;;;112.55;7.00;;;;;;;;;;4995785;28;20113;-75
2023/05/12 02:40:42;;;;;;;47.60;3.53;;;;;;;;;;4983213;28;20439;-75
2023/05/12 02:43:08;;;;;;;16.63;2.92;;;;;;;;;;4978042;28;20034;-76
2023/05/12 02:45:34;;;;;;;6.85;2.55;;;;;;;;;;4990751;28;20426;-75
2023/05/12 02:47:59;;;;;;;14.75;3.25;;;;;;;;;;4988639;28;20070;-75
2023/05/12 02:50:24;;;;;;;7.10;3.03;;;;;;;;;;4995357;28;20038;-75
2023/05/12 02:52:50;;;;;;;10.57;3.25;;;;;;;;;;4995591;28;20046;-76
2023/05/12 02:55:16;;;;;;;10.05;2.88;;;;;;;;;;4994755;28;20069;-75
2023/05/12 02:57:44;;;;;;;10.10;3.13;;;;;;;;;;4995625;28;20046;-76
2023/05/12 03:00:11;;;;;;;18.85;3.00;;;;;;;;;;4995114;28;20037;-76
2023/05/12 03:02:37;;;;;;;11.27;3.15;;;;;;;;;;4987220;28;20042;-76
2023/05/12 03:05:03;;;;;;;14.80;3.10;;;;;;;;;;4989071;28;20030;-76
2023/05/12 03:07:28;;;;;;;15.18;3.17;;;;;;;;;;4994215;28;20046;-76
2023/05/12 03:09:54;;;;;;;7.93;3.20;;;;;;;;;;4994597;28;20065;-76
2023/05/12 03:12:20;;;;;;;25.70;4.25;;;;;;;;;;4994165;28;20089;-75
2023/05/12 03:14:45;;;;;;;15.05;3.88;;;;;;;;;;4994853;28;20078;-75
2023/05/12 03:17:11;;;;;;;19.30;4.35;;;;;;;;;;4993938;28;20030;-75
2023/05/12 03:19:36;;;;;;;13.85;4.00;;;;;;;;;;4990453;28;20046;-76
2023/05/12 03:22:02;;;;;;;23.33;3.95;;;;;;;;;;4990645;28;20065;-76
2023/05/12 03:24:28;;;;;;;20.42;6.75;;;;;;;;;;4994653;28;20038;-76
2023/05/12 03:26:53;;;;;;;19.80;4.40;;;;;;;;;;4994675;28;20121;-75
2023/05/12 03:29:19;;;;;;;24.77;6.53;;;;;;;;;;4991821;28;20034;-76
2023/05/12 03:31:44;;;;;;;22.70;6.13;;;;;;;;;;4994705;28;20042;-76
2023/05/12 03:34:10;;;;;;;26.38;7.40;;;;;;;;;;4994716;28;20973;-76
2023/05/12 03:36:36;;;;;;;44.40;8.40;;;;;;;;;;4994748;28;20092;-76
2023/05/12 03:39:02;;;;;;;34.42;9.13;;;;;;;;;;4994464;28;20470;-75
2023/05/12 03:41:27;;;;;;;64.47;12.93;;;;;;;;;;4994618;28;20030;-75
2023/05/12 03:43:53;;;;;;;52.65;11.35;;;;;;;;;;4988145;28;20035;-76
2023/05/12 03:46:18;;;;;;;71.93;12.18;;;;;;;;;;4993711;28;20482;-75
2023/05/12 03:48:43;;;;;;;51.92;12.45;;;;;;;;;;4987785;28;20109;-75
2023/05/12 03:51:09;;;;;;;55.90;11.63;;;;;;;;;;4992141;28;20085;-75
2023/05/12 03:53:34;;;;;;;65.03;14.18;;;;;;;;;;4993198;28;20060;-76
2023/05/12 03:56:03;;;;;;;59.50;13.90;;;;;;;;;;4991688;28;20042;-76
2023/05/12 03:58:29;;;;;;;72.18;15.00;;;;;;;;;;4992686;28;20105;-76
2023/05/12 04:00:55;;;;;;;62.70;16.65;;;;;;;;;;4984608;28;20038;-76
2023/05/12 04:03:21;;;;;;;65.07;16.55;;;;;;;;;;4994309;28;20058;-76
2023/05/12 04:05:46;;;;;;;49.45;14.70;;;;;;;;;;4993761;28;20070;-76
2023/05/12 04:08:12;;;;;;;61.20;16.60;;;;;;;;;;4986834;28;20034;-76
2023/05/12 04:10:40;;;;;;;62.72;15.77;;;;;;;;;;4989184;28;20077;-75
2023/05/12 04:13:07;;;;;;;60.13;15.85;;;;;;;;;;4992840;28;20035;-75
2023/05/12 04:15:33;;;;;;;64.03;15.88;;;;;;;;;;4989591;28;20471;-76
2023/05/12 04:17:59;;;;;;;67.82;15.23;;;;;;;;;;4994129;28;20034;-76
2023/05/12 04:20:25;;;;;;;67.55;16.60;;;;;;;;;;4990738;28;20097;-76
2023/05/12 04:22:50;;;;;;;45.53;13.75;;;;;;;;;;4975253;28;20038;-76
2023/05/12 04:25:16;;;;;;;45.42;13.75;;;;;;;;;;4988277;28;20090;-76
2023/05/12 04:27:41;;;;;;;38.30;12.57;;;;;;;;;;4990702;28;20380;-76
2023/05/12 04:30:07;;;;;;;46.50;14.68;;;;;;;;;;4991311;28;20049;-75
2023/05/12 04:32:32;;;;;;;61.83;16.20;;;;;;;;;;4993214;28;20042;-75
2023/05/12 04:34:58;;;;;;;53.75;14.57;;;;;;;;;;4989123;28;20479;-76
2023/05/12 04:37:23;;;;;;;51.35;14.35;;;;;;;;;;4982311;28;20101;-76
2023/05/12 04:39:48;;;;;;;26.70;9.52;;;;;;;;;;4983834;28;20439;-76
2023/05/12 04:42:14;;;;;;;47.35;14.52;;;;;;;;;;4982861;28;20490;-76
2023/05/12 04:44:39;;;;;;;42.28;11.75;;;;;;;;;;4987995;28;20387;-76
2023/05/12 04:47:05;;;;;;;46.83;14.63;;;;;;;;;;4988262;28;20034;-76
2023/05/12 04:49:30;;;;;;;55.63;13.68;;;;;;;;;;4984653;28;20467;-76
2023/05/12 04:51:55;;;;;;;37.40;12.70;;;;;;;;;;4993856;28;20489;-76
2023/05/12 04:54:21;;;;;;;52.40;13.27;;;;;;;;;;4990850;28;20113;-76
2023/05/12 04:56:46;;;;;;;47.15;13.57;;;;;;;;;;4991273;28;20047;-76
2023/05/12 04:59:14;;;;;;;33.65;11.88;;;;;;;;;;4993448;28;20044;-76
2023/05/12 05:01:41;;;;;;;37.03;11.77;;;;;;;;;;4992946;28;20034;-76
2023/05/12 05:04:06;;;;;;;40.90;12.32;;;;;;;;;;4977140;28;20050;-76
2023/05/12 05:06:32;;;;;;;41.35;12.55;;;;;;;;;;4989824;28;20042;-76
2023/05/12 05:08:57;;;;;;;45.17;12.43;;;;;;;;;;4985655;28;20058;-76
2023/05/12 05:11:22;;;;;;;35.78;12.43;;;;;;;;;;4992758;28;20113;-76
2023/05/12 05:13:48;;;;;;;39.17;12.30;;;;;;;;;;4992510;28;20134;-77
2023/05/12 05:16:13;;;;;;;31.35;11.07;;;;;;;;;;4979524;28;20034;-76
2023/05/12 05:18:44;;;;;;;33.95;10.75;;;;;;;;;;4981847;28;20092;-77
2023/05/12 05:21:09;;;;;;;54.08;12.52;;;;;;;;;;4991470;28;20037;-77
2023/05/12 05:23:35;;;;;;;46.53;12.07;;;;;;;;;;4992665;28;20117;-77
2023/05/12 05:26:00;;;;;;;33.67;11.43;;;;;;;;;;4993282;28;20490;-76
2023/05/12 05:28:26;;;;;;;42.08;11.85;;;;;;;;;;4993161;28;20040;-77
2023/05/12 05:30:51;;;;;;;39.60;10.57;;;;;;;;;;4993642;28;20023;-77
2023/05/12 05:33:16;;;;;;;36.45;10.43;;;;;;;;;;4993342;28;20038;-77
2023/05/12 05:35:42;;;;;;;37.17;10.43;;;;;;;;;;4993402;28;20035;-77
2023/05/12 05:38:08;;;;;;;38.53;10.95;;;;;;;;;;4991042;28;20057;-77
2023/05/12 05:40:33;;;;;;;44.38;10.68;;;;;;;;;;4993313;28;20038;-77
2023/05/12 05:42:58;;;;;;;36.78;12.15;;;;;;;;;;4994328;28;20386;-77
2023/05/12 05:45:24;;;;;;;33.65;10.70;;;;;;;;;;4996843;28;20050;-76
2023/05/12 05:47:51;;;;;;;39.60;11.20;;;;;;;;;;4991972;28;20034;-77
2023/05/12 05:50:17;;;;;;;45.00;11.27;;;;;;;;;;4996691;28;20138;-76
2023/05/12 05:52:42;;;;;;;46.90;11.20;;;;;;;;;;4996627;28;20058;-77
2023/05/12 05:55:08;;;;;;;28.52;10.85;;;;;;;;;;4995439;28;20092;-77
2023/05/12 05:57:33;;;;;;;32.25;10.25;;;;;;;;;;4996537;28;20120;-77
2023/05/12 05:59:59;;;;;;;32.63;10.07;;;;;;;;;;4996287;28;20510;-77
2023/05/12 06:02:24;;;;;;;27.45;9.60;;;;;;;;;;4977676;28;20046;-76
2023/05/12 06:04:51;;;;;;;40.40;10.70;;;;;;;;;;4982376;28;20046;-77
2023/05/12 06:07:17;;;;;;;38.35;10.00;;;;;;;;;;4976428;28;20035;-77
2023/05/12 06:09:42;;;;;;;27.08;9.38;;;;;;;;;;4984906;28;20161;-77
2023/05/12 06:12:08;;;;;;;28.65;8.82;;;;;;;;;;4989899;28;20030;-77
2023/05/12 06:14:33;;;;;;;26.27;8.55;;;;;;;;;;4986026;28;20140;-77
2023/05/12 06:16:58;;;;;;;30.50;8.95;;;;;;;;;;4985862;28;20034;-77
2023/05/12 06:19:24;;;;;;;31.00;9.23;;;;;;;;;;4975771;28;20478;-76
2023/05/12 06:21:51;;;;;;;32.90;8.52;;;;;;;;;;4988106;28;20060;-77
2023/05/12 06:24:16;;;;;;;26.48;8.63;;;;;;;;;;4976895;28;20541;-77
2023/05/12 06:26:42;;;;;;;19.60;7.78;;;;;;;;;;4977537;28;20031;-77
2023/05/12 06:29:07;;;;;;;22.10;7.85;;;;;;;;;;4993126;28;20031;-76
2023/05/12 06:31:33;;;;;;;22.30;7.72;;;;;;;;;;4982053;28;20105;-77
2023/05/12 06:33:59;;;;;;;17.00;7.47;;;;;;;;;;4988691;28;20038;-77
2023/05/12 06:36:24;;;;;;;19.13;8.27;;;;;;;;;;4991985;28;20041;-77
2023/05/12 06:38:51;;;;;;;17.77;8.30;;;;;;;;;;4990612;28;20422;-76
2023/05/12 06:41:16;;;;;;;22.13;7.85;;;;;;;;;;4995299;28;20037;-77
2023/05/12 06:43:42;;;;;;;20.92;8.10;;;;;;;;;;4987562;28;20031;-77
2023/05/12 06:46:07;;;;;;;16.38;7.85;;;;;;;;;;4992781;28;20367;-77
2023/05/12 06:48:33;;;;;;;17.00;7.45;;;;;;;;;;4994231;28;20113;-79
2023/05/12 06:50:58;;;;;;;14.85;6.78;;;;;;;;;;4991960;28;20032;-77
2023/05/12 06:53:23;;;;;;;16.15;7.30;;;;;;;;;;4995638;28;20038;-78
2023/05/12 06:55:49;;;;;;;18.05;7.53;;;;;;;;;;4994633;28;20034;-77
2023/05/12 06:58:15;;;;;;;14.23;7.40;;;;;;;;;;4995476;28;20054;-77
2023/05/12 07:00:41;;;;;;;19.30;7.03;;;;;;;;;;4989433;28;20127;-77
2023/05/12 07:03:08;;;;;;;15.75;6.72;;;;;;;;;;4994307;28;20034;-77
2023/05/12 07:05:34;;;;;;;20.33;7.90;;;;;;;;;;4982627;28;20038;-77
2023/05/12 07:08:00;;;;;;;15.18;6.82;;;;;;;;;;4993182;28;20097;-78
2023/05/12 07:10:25;;;;;;;11.65;5.90;;;;;;;;;;4980386;28;20058;-77
2023/05/12 07:12:51;;;;;;;12.18;5.80;;;;;;;;;;4989214;28;20038;-77
2023/05/12 07:15:16;;;;;;;15.10;6.50;;;;;;;;;;4989430;28;20034;-77
2023/05/12 07:17:41;;;;;;;9.95;5.07;;;;;;;;;;4992153;28;20081;-77
2023/05/12 07:20:08;;;;;;;10.90;5.13;;;;;;;;;;4993185;28;20089;-77
2023/05/12 07:22:34;;;;;;;13.25;5.53;;;;;;;;;;4988997;28;20046;-77
2023/05/12 07:24:59;;;;;;;15.65;4.35;;;;;;;;;;4994994;28;20387;-77
2023/05/12 07:27:25;;;;;;;11.75;5.40;;;;;;;;;;4995187;28;20065;-78
2023/05/12 07:29:50;;;;;;;11.07;5.53;;;;;;;;;;4984924;28;20038;-77
2023/05/12 07:32:16;;;;;;;13.52;4.57;;;;;;;;;;4986146;28;20030;-78
2023/05/12 07:34:41;;;;;;;12.32;4.97;;;;;;;;;;4980747;28;20081;-78
2023/05/12 07:37:07;;;;;;;9.77;5.32;;;;;;;;;;4985083;28;20074;-77
2023/05/12 07:39:32;;;;;;;8.30;4.70;;;;;;;;;;4990102;28;20410;-78
2023/05/12 07:41:58;;;;;;;10.70;5.45;;;;;;;;;;4994429;28;20105;-78
2023/05/12 07:44:24;;;;;;;8.63;4.45;;;;;;;;;;4991937;28;20375;-76
2023/05/12 07:46:49;;;;;;;12.52;4.90;;;;;;;;;;4993153;28;20147;-78
2023/05/12 07:49:14;;;;;;;9.40;5.03;;;;;;;;;;4985317;28;20042;-76
2023/05/12 07:51:40;;;;;;;8.30;4.85;;;;;;;;;;4992244;28;20030;-76
2023/05/12 07:54:06;;;;;;;10.50;4.95;;;;;;;;;;4991693;28;20042;-76
2023/05/12 07:56:32;;;;;;;12.25;5.72;;;;;;;;;;4991429;28;20371;-76
2023/05/12 07:58:57;;;;;;;8.75;5.03;;;;;;;;;;4993352;28;20046;-76
2023/05/12 08:01:23;;;;;;;9.43;5.53;;;;;;;;;;4980984;28;20049;-78
2023/05/12 08:03:50;;;;;;;10.07;5.50;;;;;;;;;;4991340;28;20049;-78
2023/05/12 08:06:16;;;;;;;12.30;5.32;;;;;;;;;;4985684;28;20073;-78
2023/05/12 08:08:41;;;;;;;12.77;6.15;;;;;;;;;;4988906;28;20089;-78
2023/05/12 08:11:07;;;;;;;9.85;5.30;;;;;;;;;;4993113;28;20026;-78
2023/05/12 08:13:32;;;;;;;13.45;6.15;;;;;;;;;;4993963;28;20038;-77
2023/05/12 08:15:57;;;;;;;10.50;4.88;;;;;;;;;;4994133;28;20041;-78
2023/05/12 08:18:23;;;;;;;11.02;5.60;;;;;;;;;;4993526;28;20497;-78
2023/05/12 08:20:51;;;;;;;14.15;6.38;;;;;;;;;;4983446;28;20077;-78
2023/05/12 08:23:17;;;;;;;11.50;5.28;;;;;;;;;;4975230;28;20034;-78
2023/05/12 08:25:43;;;;;;;12.80;6.68;;;;;;;;;;4988747;28;20045;-78
2023/05/12 08:28:09;;;;;;;11.25;6.07;;;;;;;;;;4978317;28;20439;-78
2023/05/12 08:30:35;;;;;;;9.02;5.43;;;;;;;;;;4986941;28;20034;-78
2023/05/12 08:33:02;;;;;;;10.98;6.43;;;;;;;;;;4986248;28;20567;-78
2023/05/12 08:35:27;;;;;;;14.05;5.97;;;;;;;;;;4984584;28;20039;-78
2023/05/12 08:37:53;;;;;;;13.93;5.72;;;;;;;;;;4982546;28;20038;-78
2023/05/12 08:40:20;;;;;;;10.05;5.03;;;;;;;;;;4988279;28;20048;-78
2023/05/12 08:42:59;;;;;;;12.73;5.82;;;;;;;;;;4990554;28;20054;-78
2023/05/12 08:45:24;;;;;;;14.95;6.22;;;;;;;;;;4976575;28;20045;-78
2023/05/12 08:47:50;;;;;;;12.25;6.22;;;;;;;;;;4981597;28;20046;-76
2023/05/12 08:50:17;;;;;;;12.43;5.90;;;;;;;;;;4982719;28;20045;-78
2023/05/12 08:52:43;;;;;;;11.38;5.65;;;;;;;;;;4986417;28;20052;-78
2023/05/12 08:55:08;;;;;;;14.20;6.57;;;;;;;;;;4988795;28;20038;-78
2023/05/12 08:57:35;;;;;;;17.02;6.30;;;;;;;;;;4987360;28;20054;-77
2023/05/12 09:00:01;;;;;;;10.50;5.47;;;;;;;;;;4979458;28;20038;-78
2023/05/12 09:02:27;;;;;;;11.82;5.35;;;;;;;;;;4986174;28;20039;-77
2023/05/12 09:04:55;;;;;;;11.85;6.63;;;;;;;;;;4980375;28;20069;-77
2023/05/12 09:07:23;;;;;;;12.32;6.13;;;;;;;;;;4988489;28;20073;-78
2023/05/12 09:09:53;;;;;;;16.08;5.63;;;;;;;;;;4991133;28;20049;-77
2023/05/12 09:12:20;;;;;;;13.70;6.05;;;;;;;;;;4990854;28;20103;-78
2023/05/12 09:14:47;;;;;;;9.98;5.82;;;;;;;;;;4990651;28;20769;-78
2023/05/12 09:17:12;;;;;;;10.32;5.32;;;;;;;;;;4990858;28;20046;-78
2023/05/12 09:19:38;;;;;;;11.30;5.90;;;;;;;;;;4996055;28;20045;-77
2023/05/12 09:22:03;;;;;;;9.65;5.35;;;;;;;;;;4996002;28;20038;-78
2023/05/12 09:24:38;;;;;;;12.93;5.65;;;;;;;;;;4996345;28;20050;-78
2023/05/12 09:27:05;;;;;;;14.60;5.97;;;;;;;;;;4993737;28;20044;-77
2023/05/12 09:29:32;;;;;;;12.52;6.20;;;;;;;;;;4983779;28;20045;-78
2023/05/12 09:32:00;;;;;;;11.40;5.75;;;;;;;;;;4978194;28;20031;-77
2023/05/12 09:34:30;;;;;;;12.98;5.47;;;;;;;;;;4989606;28;20040;-78
2023/05/12 09:36:57;;;;;;;10.55;5.47;;;;;;;;;;4990931;28;20047;-78
2023/05/12 09:39:23;;;;;;;11.60;5.63;;;;;;;;;;4992203;28;20038;-78
2023/05/12 09:41:50;;;;;;;9.88;4.85;;;;;;;;;;4994729;28;20049;-77
2023/05/12 09:44:15;;;;;;;10.20;5.22;;;;;;;;;;4991096;28;20491;-78
2023/05/12 09:46:41;;;;;;;10.25;4.68;;;;;;;;;;4981637;28;20082;-78
2023/05/12 09:49:06;;;;;;;9.30;4.55;;;;;;;;;;4978851;28;20447;-78
2023/05/12 09:51:32;;;;;;;9.27;4.22;;;;;;;;;;4982176;28;20043;-78
2023/05/12 09:53:58;;;;;;;10.55;4.10;;;;;;;;;;4983086;28;20034;-78
2023/05/12 09:56:26;;;;;;;10.85;3.95;;;;;;;;;;4983211;28;20026;-78
2023/05/12 09:58:53;;;;;;;10.00;3.95;;;;;;;;;;4990914;28;20058;-78
2023/05/12 10:01:20;;;;;;;10.65;4.43;;;;;;;;;;4994383;28;20101;-78
2023/05/12 10:03:49;;;;;;;7.65;3.72;;;;;;;;;;4989053;28;20034;-78
2023/05/12 10:06:31;;;;;;;6.57;3.88;;;;;;;;;;4990685;28;20038;-78
2023/05/12 10:09:19;;;;;;;8.93;3.85;;;;;;;;;;4992024;28;20490;-78
2023/05/12 10:11:45;;;;;;;6.28;4.03;;;;;;;;;;4985007;28;20035;-78
2023/05/12 10:14:12;;;;;;;8.05;3.60;;;;;;;;;;4976519;28;20442;-78
2023/05/12 10:16:37;;;;;;;6.30;3.55;;;;;;;;;;4976097;28;20053;-78
2023/05/12 10:19:04;;;;;;;9.02;3.22;;;;;;;;;;4986228;28;20046;-78
2023/05/12 10:21:30;;;;;;;12.25;4.05;;;;;;;;;;4993101;28;20069;-78
2023/05/12 10:23:56;;;;;;;7.55;3.70;;;;;;;;;;4984974;28;20047;-78
2023/05/12 10:26:22;;;;;;;7.43;3.75;;;;;;;;;;4984167;28;20045;-78
2023/05/12 10:28:48;;;;;;;9.48;3.90;;;;;;;;;;4986611;28;20038;-79
2023/05/12 10:31:14;;;;;;;9.45;3.25;;;;;;;;;;4981899;28;20146;-78
2023/05/12 10:33:40;;;;;;;7.25;3.67;;;;;;;;;;4988632;28;20078;-78
2023/05/12 10:36:15;;;;;;;6.40;3.60;;;;;;;;;;4982996;28;20128;-78
2023/05/12 10:38:41;;;;;;;7.63;3.45;;;;;;;;;;4981324;28;20042;-78
2023/05/12 10:41:07;;;;;;;9.13;3.60;;;;;;;;;;4979386;28;20054;-78
2023/05/12 10:43:41;;;;;;;7.85;3.58;;;;;;;;;;4985279;28;20097;-77
2023/05/12 10:46:18;;;;;;;6.80;3.35;;;;;;;;;;4989687;28;20143;-77
2023/05/12 10:48:55;;;;;;;8.77;3.45;;;;;;;;;;4988414;28;20100;-77
2023/05/12 10:51:27;;;;;;;7.88;3.75;;;;;;;;;;4981864;28;20182;-77
2023/05/12 10:54:04;;;;;;;8.68;3.42;;;;;;;;;;4988195;28;20129;-77
2023/05/12 10:56:43;;;;;;;7.65;3.53;;;;;;;;;;4988298;28;20037;-77
2023/05/12 10:59:20;;;;;;;6.90;3.25;;;;;;;;;;4994008;28;20046;-77
2023/05/12 11:02:00;;;;;;;7.75;3.53;;;;;;;;;;4994025;28;20131;-77
2023/05/12 11:04:36;;;;;;;7.22;3.05;;;;;;;;;;4977909;28;20046;-77
2023/05/12 11:07:03;;;;;;;7.43;3.10;;;;;;;;;;4988477;28;20121;-77
2023/05/12 11:09:28;;;;;;;9.63;3.50;;;;;;;;;;4984781;28;20034;-77
2023/05/12 11:11:54;;;;;;;13.05;3.58;;;;;;;;;;4975706;28;20027;-77
2023/05/12 11:14:20;;;;;;;7.20;3.42;;;;;;;;;;4987184;28;20042;-77
2023/05/12 11:16:45;;;;;;;6.03;3.70;;;;;;;;;;4981400;28;20180;-77
2023/05/12 11:19:11;;;;;;;7.20;3.33;;;;;;;;;;4977488;28;20093;-77
2023/05/12 11:21:37;;;;;;;8.60;3.17;;;;;;;;;;4988526;28;20038;-77
2023/05/12 11:24:02;;;;;;;8.15;3.90;;;;;;;;;;4987401;28;20050;-76
2023/05/12 11:26:28;;;;;;;6.13;3.83;;;;;;;;;;4987324;28;20034;-77
2023/05/12 11:28:56;;;;;;;8.25;3.97;;;;;;;;;;5001542;28;20038;-77
2023/05/12 11:31:21;;;;;;;8.68;3.90;;;;;;;;;;4987061;28;20110;-78
2023/05/12 11:33:47;;;;;;;7.63;4.00;;;;;;;;;;4989089;28;20492;-77
2023/05/12 11:36:13;;;;;;;9.35;3.65;;;;;;;;;;4987775;28;20050;-77
2023/05/12 11:38:39;;;;;;;7.07;3.60;;;;;;;;;;4987442;28;20817;-77
2023/05/12 11:41:04;;;;;;;8.70;3.33;;;;;;;;;;4992670;28;20053;-77
2023/05/12 11:43:30;;;;;;;9.65;3.25;;;;;;;;;;4991803;28;20148;-77
2023/05/12 11:45:55;;;;;;;5.65;3.03;;;;;;;;;;4993765;28;20038;-77
2023/05/12 11:48:21;;;;;;;7.18;3.33;;;;;;;;;;4993403;28;20066;-77
2023/05/12 11:50:49;;;;;;;6.75;3.10;;;;;;;;;;4993713;28;20042;-78
2023/05/12 11:53:17;;;;;;;6.18;3.53;;;;;;;;;;4976616;28;20388;-77
2023/05/12 11:55:53;;;;;;;10.90;3.35;;;;;;;;;;4982811;28;20045;-78
2023/05/12 11:58:20;;;;;;;4.07;2.42;;;;;;;;;;4987349;28;20594;-78
2023/05/12 12:00:47;;;;;;;5.03;2.72;;;;;;;;;;4988886;28;20030;-78
2023/05/12 12:03:14;;;;;;;6.75;2.72;;;;;;;;;;4985203;28;20034;-78
2023/05/12 12:05:41;;;;;;;6.50;2.80;;;;;;;;;;4978586;28;20053;-77
2023/05/12 12:08:08;;;;;;;8.55;3.33;;;;;;;;;;4985282;28;20030;-77
2023/05/12 12:10:34;;;;;;;8.48;3.08;;;;;;;;;;4975349;28;20030;-75
2023/05/12 12:13:00;;;;;;;7.78;2.78;;;;;;;;;;4984166;28;20117;-76
2023/05/12 12:15:26;;;;;;;5.93;2.72;;;;;;;;;;4988673;28;20175;-76
2023/05/12 12:17:52;;;;;;;6.10;2.40;;;;;;;;;;4983295;28;20105;-77
2023/05/12 12:20:17;;;;;;;5.57;2.72;;;;;;;;;;4983170;28;20474;-77
2023/05/12 12:22:43;;;;;;;5.00;2.70;;;;;;;;;;4990996;28;20049;-77
2023/05/12 12:25:08;;;;;;;6.50;3.10;;;;;;;;;;4992709;28;20030;-77
2023/05/12 12:27:34;;;;;;;8.02;2.90;;;;;;;;;;4984477;28;20042;-77
2023/05/12 12:29:59;;;;;;;5.38;2.50;;;;;;;;;;4991735;28;20038;-77
2023/05/12 12:32:25;;;;;;;5.60;2.88;;;;;;;;;;4985384;28;20084;-77
2023/05/12 12:34:52;;;;;;;6.18;2.80;;;;;;;;;;4992101;28;20046;-77
2023/05/12 12:37:17;;;;;;;4.88;2.53;;;;;;;;;;4988042;28;20035;-77
2023/05/12 12:39:43;;;;;;;6.13;2.67;;;;;;;;;;4989153;28;20113;-77
2023/05/12 12:42:08;;;;;;;4.03;2.38;;;;;;;;;;4987808;28;20460;-77
2023/05/12 12:44:34;;;;;;;6.85;2.38;;;;;;;;;;4986495;28;20034;-75
2023/05/12 12:46:59;;;;;;;5.03;2.40;;;;;;;;;;4988345;28;20054;-77
2023/05/12 12:49:25;;;;;;;5.80;2.30;;;;;;;;;;4990773;28;20077;-77
2023/05/12 12:51:50;;;;;;;7.35;2.38;;;;;;;;;;4983195;28;20372;-77
2023/05/12 12:54:15;;;;;;;5.47;2.00;;;;;;;;;;4991398;28;20077;-77
2023/05/12 12:56:43;;;;;;;6.25;3.15;;;;;;;;;;4993184;28;20095;-77
2023/05/12 12:59:08;;;;;;;10.40;2.70;;;;;;;;;;4992561;28;20486;-78
2023/05/12 13:01:33;;;;;;;7.20;2.90;;;;;;;;;;4989321;28;20054;-77
2023/05/12 13:03:59;;;;;;;3.80;2.00;;;;;;;;;;4995864;28;20057;-77
2023/05/12 13:06:25;;;;;;;5.05;2.33;;;;;;;;;;4995355;28;20050;-77
2023/05/12 13:08:51;;;;;;;4.60;2.45;;;;;;;;;;4995600;28;20146;-76
2023/05/12 13:11:16;;;;;;;4.55;2.60;;;;;;;;;;4996696;28;20121;-78
2023/05/12 13:13:42;;;;;;;3.97;2.10;;;;;;;;;;4995722;28;20537;-77
2023/05/12 13:16:07;;;;;;;7.72;2.15;;;;;;;;;;4979665;28;20035;-77
2023/05/12 13:18:33;;;;;;;6.10;2.50;;;;;;;;;;4977558;28;20125;-77
2023/05/12 13:20:58;;;;;;;3.78;1.77;;;;;;;;;;4988123;28;20039;-77
2023/05/12 13:23:24;;;;;;;3.63;1.73;;;;;;;;;;4989097;28;20065;-77
2023/05/12 13:25:50;;;;;;;5.43;2.00;;;;;;;;;;4995846;28;20510;-77
2023/05/12 13:28:16;;;;;;;5.00;1.85;;;;;;;;;;4994119;28;20030;-77
2023/05/12 13:30:42;;;;;;;3.30;1.73;;;;;;;;;;4980570;28;20034;-77
2023/05/12 13:33:08;;;;;;;8.45;2.35;;;;;;;;;;4979980;28;20537;-77
2023/05/12 13:35:33;;;;;;;4.32;2.00;;;;;;;;;;5020715;28;20026;-77
2023/05/12 13:37:59;;;;;;;4.28;1.85;;;;;;;;;;4996173;28;20433;-77
2023/05/12 13:40:24;;;;;;;5.25;1.80;;;;;;;;;;4994863;28;20042;-77
2023/05/12 13:42:50;;;;;;;5.45;1.70;;;;;;;;;;4995630;28;20042;-77
2023/05/12 13:45:15;;;;;;;2.70;1.65;;;;;;;;;;4994314;28;20061;-77
2023/05/12 13:47:41;;;;;;;4.03;1.98;;;;;;;;;;4995796;28;20080;-77
2023/05/12 13:50:06;;;;;;;4.75;1.70;;;;;;;;;;4987179;28;20097;-77
2023/05/12 13:52:32;;;;;;;4.30;2.25;;;;;;;;;;4982531;28;20113;-77
2023/05/12 13:54:58;;;;;;;3.97;1.95;;;;;;;;;;4983024;28;20387;-77
2023/05/12 13:57:23;;;;;;;4.40;1.70;;;;;;;;;;4986092;28;20050;-78
2023/05/12 13:59:50;;;;;;;3.63;2.08;;;;;;;;;;4994115;28;20088;-77
2023/05/12 14:02:16;;;;;;;3.65;1.80;;;;;;;;;;4993433;28;20129;-77
2023/05/12 14:04:41;;;;;;;2.78;1.67;;;;;;;;;;4995110;28;20161;-78
2023/05/12 14:07:07;;;;;;;8.57;1.50;;;;;;;;;;4994856;28;20429;-77
2023/05/12 14:09:32;;;;;;;3.88;1.52;;;;;;;;;;4994940;28;20049;-77
2023/05/12 14:11:58;;;;;;;2.65;1.30;;;;;;;;;;4979023;28;20034;-77
2023/05/12 14:14:24;;;;;;;7.45;1.50;;;;;;;;;;4986772;28;20038;-77
2023/05/12 14:16:49;;;;;;;4.28;1.70;;;;;;;;;;4988635;28;20042;-77
2023/05/12 14:19:15;;;;;;;6.03;1.70;;;;;;;;;;4995251;28;20065;-78
2023/05/12 14:21:40;;;;;;;3.72;1.38;;;;;;;;;;4993386;28;20041;-77
2023/05/12 14:24:07;;;;;;;5.68;1.58;;;;;;;;;;4994884;28;20050;-77
2023/05/12 14:26:33;;;;;;;3.65;1.58;;;;;;;;;;4994703;28;20074;-77
2023/05/12 14:28:58;;;;;;;6.80;1.60;;;;;;;;;;4994860;28;20034;-77